createdAt,value
2022-09-06T00:01:16.146Z,13.19
2022-09-06T00:04:05.865Z,13.18
2022-09-06T00:06:46.304Z,13.19
2022-09-06T00:13:16.108Z,13.20
2022-09-06T00:23:07.781Z,13.15
2022-09-06T00:29:21.598Z,13.13
2022-09-06T00:32:53.331Z,13.09
2022-09-06T00:36:14.061Z,13.06
2022-09-06T00:39:01.709Z,13.05
2022-09-06T00:46:35.864Z,13.03
2022-09-06T00:49:08.753Z,13.01
2022-09-06T00:52:17.008Z,12.97
2022-09-06T00:54:46.828Z,12.90
2022-09-06T00:57:17.127Z,12.86
2022-09-06T00:59:47.132Z,12.84
2022-09-06T01:02:15.630Z,12.82
2022-09-06T01:04:45.988Z,12.82
2022-09-06T01:07:22.277Z,12.79
2022-09-06T01:10:05.951Z,12.76
2022-09-06T01:12:45.983Z,12.72
2022-09-06T01:15:24.049Z,12.69
2022-09-06T01:18:01.985Z,12.64
2022-09-06T01:20:57.272Z,12.59
2022-09-06T01:23:55.669Z,12.55
2022-09-06T01:26:46.984Z,12.52
2022-09-06T01:29:27.640Z,12.54
2022-09-06T01:32:02.473Z,12.53
2022-09-06T01:34:36.206Z,12.46
2022-09-06T01:37:11.204Z,12.44
2022-09-06T01:39:42.582Z,12.45
2022-09-06T01:42:14.360Z,12.44
2022-09-06T01:44:46.550Z,12.41
2022-09-06T01:47:29.844Z,12.39
2022-09-06T01:50:25.248Z,12.35
2022-09-06T01:53:03.604Z,12.32
2022-09-06T01:55:38.568Z,12.28
2022-09-06T01:58:29.231Z,12.30
2022-09-06T02:01:06.963Z,12.29
2022-09-06T02:03:43.508Z,12.23
2022-09-06T02:06:16.013Z,12.21
2022-09-06T02:08:48.270Z,12.12
2022-09-06T02:11:17.504Z,12.08
2022-09-06T02:13:51.095Z,12.02
2022-09-06T02:16:25.690Z,11.97
2022-09-06T02:18:58.424Z,11.92
2022-09-06T02:21:30.686Z,11.89
2022-09-06T02:24:01.681Z,11.84
2022-09-06T02:26:33.677Z,11.82
2022-09-06T02:29:07.961Z,11.75
2022-09-06T02:31:42.210Z,11.76
2022-09-06T02:34:14.686Z,11.72
2022-09-06T02:36:42.740Z,11.72
2022-09-06T02:39:10.986Z,11.69
2022-09-06T02:41:40.352Z,11.66
2022-09-06T02:44:08.399Z,11.65
2022-09-06T02:46:37.592Z,11.66
2022-09-06T02:49:05.374Z,11.65
2022-09-06T02:51:37.859Z,11.60
2022-09-06T02:54:06.529Z,11.55
2022-09-06T02:56:36.490Z,11.52
2022-09-06T02:59:05.459Z,11.48
2022-09-06T03:01:33.637Z,11.44
2022-09-06T03:04:03.300Z,11.42
2022-09-06T03:06:34.096Z,11.41
2022-09-06T03:09:02.054Z,11.43
2022-09-06T03:11:29.929Z,11.43
2022-09-06T03:13:59.338Z,11.41
2022-09-06T03:16:27.236Z,11.39
2022-09-06T03:18:57.897Z,11.40
2022-09-06T03:21:27.092Z,11.37
2022-09-06T03:23:54.874Z,11.35
2022-09-06T03:26:22.776Z,11.31
2022-09-06T03:28:51.281Z,11.27
2022-09-06T03:31:21.426Z,11.26
2022-09-06T03:33:51.057Z,11.25
2022-09-06T03:36:18.865Z,11.22
2022-09-06T03:38:51.159Z,11.19
2022-09-06T03:41:18.935Z,11.18
2022-09-06T03:43:46.726Z,11.14
2022-09-06T03:46:14.688Z,11.09
2022-09-06T03:48:42.584Z,11.06
2022-09-06T03:51:10.339Z,11.03
2022-09-06T03:53:38.218Z,11.01
2022-09-06T03:56:07.928Z,11.05
2022-09-06T03:58:35.670Z,11.04
2022-09-06T04:01:05.947Z,11.04
2022-09-06T04:03:34.636Z,11.00
2022-09-06T04:06:02.465Z,11.01
2022-09-06T04:08:30.670Z,11.06
2022-09-06T04:11:00.367Z,11.03
2022-09-06T04:13:30.591Z,11.05
2022-09-06T04:15:58.966Z,11.03
2022-09-06T04:18:27.225Z,11.03
2022-09-06T04:20:57.022Z,10.96
2022-09-06T04:23:26.923Z,10.94
2022-09-06T04:26:00.304Z,10.92
2022-09-06T04:28:29.869Z,10.90
2022-09-06T04:31:03.953Z,10.88
2022-09-06T04:33:34.125Z,10.87
2022-09-06T04:36:03.580Z,10.93
2022-09-06T04:38:33.243Z,10.92
2022-09-06T04:41:01.065Z,10.93
2022-09-06T04:43:30.248Z,10.95
2022-09-06T04:46:03.215Z,10.93
2022-09-06T04:48:31.149Z,10.94
2022-09-06T04:50:58.957Z,10.96
2022-09-06T04:53:28.399Z,10.96
2022-09-06T04:55:58.236Z,10.98
2022-09-06T04:58:26.448Z,11.00
2022-09-06T05:00:55.888Z,11.01
2022-09-06T05:03:26.579Z,11.03
2022-09-06T05:05:54.334Z,11.04
2022-09-06T05:08:22.246Z,11.08
2022-09-06T05:10:52.760Z,11.09
2022-09-06T05:13:20.533Z,11.11
2022-09-06T05:15:48.363Z,11.11
2022-09-06T05:18:17.539Z,11.15
2022-09-06T05:20:47.964Z,11.22
2022-09-06T05:23:15.799Z,11.24
2022-09-06T05:25:43.558Z,11.24
2022-09-06T05:28:11.341Z,11.29
2022-09-06T05:30:42.071Z,11.33
2022-09-06T05:33:09.964Z,11.40
2022-09-06T05:35:39.612Z,11.47
2022-09-06T05:38:07.426Z,11.57
2022-09-06T05:40:35.566Z,11.72
2022-09-06T05:43:03.372Z,11.83
2022-09-06T05:45:31.273Z,12.01
2022-09-06T05:47:59.088Z,12.22
2022-09-06T05:50:27.089Z,12.45
2022-09-06T05:52:56.333Z,12.75
2022-09-06T05:55:24.118Z,13.17
2022-09-06T05:57:51.866Z,13.57
2022-09-06T06:00:19.853Z,14.02
2022-09-06T06:02:49.262Z,14.31
2022-09-06T06:05:17.847Z,14.57
2022-09-06T06:07:45.863Z,14.81
2022-09-06T06:10:14.977Z,15.00
2022-09-06T06:12:42.864Z,15.13
2022-09-06T06:15:14.546Z,15.25
2022-09-06T06:17:42.383Z,15.35
2022-09-06T06:20:10.983Z,15.46
2022-09-06T06:22:39.080Z,15.54
2022-09-06T06:25:07.332Z,15.57
2022-09-06T06:27:37.187Z,15.55
2022-09-06T06:30:05.993Z,15.58
2022-09-06T06:32:33.795Z,15.62
2022-09-06T06:35:01.566Z,15.67
2022-09-06T06:37:29.534Z,15.73
2022-09-06T06:39:57.357Z,15.81
2022-09-06T06:42:25.344Z,15.96
2022-09-06T06:44:54.536Z,16.10
2022-09-06T06:47:22.396Z,16.22
2022-09-06T06:49:50.171Z,16.38
2022-09-06T06:52:18.042Z,16.56
2022-09-06T06:54:45.831Z,16.73
2022-09-06T06:57:13.640Z,16.94
2022-09-06T06:59:41.495Z,17.18
2022-09-06T07:02:10.777Z,17.42
2022-09-06T07:04:38.598Z,17.64
2022-09-06T07:12:42.128Z,18.44
2022-09-06T07:15:10.610Z,18.61
2022-09-06T07:17:39.790Z,18.82
2022-09-06T07:22:40.484Z,19.20
2022-09-06T07:25:15.294Z,19.28
2022-09-06T07:30:14.890Z,19.26
2022-09-06T07:32:47.091Z,19.27
2022-09-06T07:35:14.970Z,19.21
2022-09-06T07:37:42.845Z,19.16
2022-09-06T07:40:11.992Z,19.12
2022-09-06T07:42:39.788Z,18.96
2022-09-06T07:45:08.556Z,18.88
2022-09-06T07:53:15.614Z,18.90
2022-09-06T07:55:45.563Z,18.80
2022-09-06T07:58:13.384Z,18.69
2022-09-06T08:00:43.133Z,18.52
2022-09-06T08:03:11.017Z,18.47
2022-09-06T08:11:19.683Z,18.39
2022-09-06T08:13:51.292Z,18.44
2022-09-06T08:16:20.181Z,18.53
2022-09-06T08:18:51.955Z,18.75
2022-09-06T08:21:23.577Z,19.10
2022-09-06T08:23:53.441Z,19.54
2022-09-06T08:26:23.614Z,19.92
2022-09-06T08:28:55.812Z,20.52
2022-09-06T08:31:23.750Z,20.84
2022-09-06T08:33:52.823Z,21.03
2022-09-06T08:36:23.106Z,21.02
2022-09-06T08:38:50.915Z,21.13
2022-09-06T08:41:26.189Z,20.95
2022-09-06T08:47:00.727Z,20.59
2022-09-06T08:49:31.656Z,20.58
2022-09-06T08:52:49.352Z,20.48
2022-09-06T08:55:32.752Z,20.41
2022-09-06T08:58:27.989Z,20.37
2022-09-06T09:00:59.491Z,20.37
2022-09-06T09:03:33.541Z,20.34
2022-09-06T09:06:05.324Z,20.46
2022-09-06T09:08:43.012Z,20.52
2022-09-06T09:11:16.334Z,20.65
2022-09-06T09:13:55.867Z,20.77
2022-09-06T09:16:24.361Z,20.82
2022-09-06T09:18:54.844Z,20.83
2022-09-06T09:21:30.646Z,20.74
2022-09-06T09:24:04.487Z,20.74
2022-09-06T09:26:38.493Z,20.84
2022-09-06T09:29:08.919Z,21.03
2022-09-06T09:31:39.284Z,21.19
2022-09-06T09:34:14.777Z,21.26
2022-09-06T09:39:39.134Z,21.41
2022-09-06T09:42:08.582Z,21.56
2022-09-06T09:44:37.558Z,21.95
2022-09-06T09:47:24.568Z,22.11
2022-09-06T09:49:52.319Z,22.34
2022-09-06T09:52:27.129Z,22.48
2022-09-06T09:54:58.632Z,22.65
2022-09-06T09:57:26.634Z,22.77
2022-09-06T09:59:58.323Z,22.99
2022-09-06T10:02:29.006Z,23.14
2022-09-06T10:05:03.004Z,23.38
2022-09-06T10:07:33.716Z,23.56
2022-09-06T10:10:05.866Z,23.47
2022-09-06T10:12:35.797Z,23.24
2022-09-06T10:15:06.866Z,23.22
2022-09-06T10:17:37.950Z,23.40
2022-09-06T10:20:09.255Z,23.55
2022-09-06T10:22:46.717Z,23.80
2022-09-06T10:25:38.948Z,24.00
2022-09-06T10:28:28.867Z,23.62
2022-09-06T10:31:10.580Z,23.56
2022-09-06T10:33:53.857Z,23.46
2022-09-06T10:36:27.696Z,23.30
2022-09-06T10:39:03.688Z,23.50
2022-09-06T10:42:04.928Z,24.31
2022-09-06T10:44:46.661Z,24.55
2022-09-06T10:47:16.362Z,24.78
2022-09-06T10:49:48.737Z,25.22
2022-09-06T10:52:22.145Z,25.83
2022-09-06T10:54:49.966Z,26.34
2022-09-06T11:00:15.481Z,27.05
2022-09-06T11:05:44.242Z,26.61
2022-09-06T11:11:09.326Z,27.31
2022-09-06T11:13:39.434Z,27.30
2022-09-06T11:16:11.426Z,27.54
2022-09-06T11:18:44.043Z,27.87
2022-09-06T11:21:32.341Z,27.93
2022-09-06T11:24:11.725Z,27.99
2022-09-06T11:26:45.086Z,28.04
2022-09-06T11:29:22.770Z,28.26
2022-09-06T11:34:45.706Z,27.94
2022-09-06T11:37:26.571Z,28.37
2022-09-06T11:43:18.153Z,28.32
2022-09-06T11:45:49.962Z,28.63
2022-09-06T11:48:59.163Z,28.27
2022-09-06T11:51:36.099Z,27.93
2022-09-06T11:54:17.345Z,27.84
2022-09-06T11:56:54.431Z,27.59
2022-09-06T11:59:34.644Z,27.18
2022-09-06T12:02:05.593Z,26.92
2022-09-06T12:05:12.987Z,27.02
2022-09-06T12:08:14.546Z,26.94
2022-09-06T12:10:47.792Z,27.01
2022-09-06T12:13:39.898Z,27.04
2022-09-06T12:16:08.378Z,26.89
2022-09-06T12:18:57.713Z,27.11
2022-09-06T12:21:41.396Z,27.01
2022-09-06T12:24:11.200Z,27.05
2022-09-06T12:26:55.875Z,27.03
2022-09-06T12:29:26.574Z,27.00
2022-09-06T12:31:57.625Z,27.14
2022-09-06T12:34:33.204Z,27.39
2022-09-06T12:37:04.494Z,27.49
2022-09-06T12:39:32.402Z,27.35
2022-09-06T12:42:03.368Z,27.16
2022-09-06T12:44:36.671Z,27.06
2022-09-06T12:47:10.957Z,27.34
2022-09-06T12:49:40.219Z,27.68
2022-09-06T12:52:11.461Z,27.61
2022-09-06T12:54:48.816Z,27.70
2022-09-06T12:57:20.854Z,27.61
2022-09-06T12:59:50.432Z,27.48
2022-09-06T13:02:27.759Z,27.58
2022-09-06T13:05:05.369Z,27.58
2022-09-06T13:07:35.371Z,27.36
2022-09-06T13:10:04.186Z,27.24
2022-09-06T13:12:35.347Z,27.21
2022-09-06T13:15:09.054Z,27.30
2022-09-06T13:17:38.426Z,27.37
2022-09-06T13:20:17.523Z,27.49
2022-09-06T13:22:47.466Z,27.30
2022-09-06T13:25:20.702Z,27.18
2022-09-06T13:27:51.176Z,27.34
2022-09-06T13:30:37.579Z,27.27
2022-09-06T13:33:07.729Z,27.22
2022-09-06T13:35:39.019Z,27.29
2022-09-06T13:38:30.714Z,27.53
2022-09-06T13:41:16.610Z,28.09
2022-09-06T13:43:46.390Z,27.78
2022-09-06T13:46:14.632Z,27.73
2022-09-06T13:48:44.701Z,27.52
2022-09-06T13:51:14.058Z,27.21
2022-09-06T13:53:41.983Z,26.90
2022-09-06T13:56:12.028Z,27.00
2022-09-06T13:58:39.857Z,27.14
2022-09-06T14:01:09.921Z,27.19
2022-09-06T14:03:41.879Z,27.31
2022-09-06T14:06:10.932Z,27.45
2022-09-06T14:11:28.872Z,27.56
2022-09-06T14:13:56.763Z,27.61
2022-09-06T14:16:24.940Z,27.53
2022-09-06T14:18:53.016Z,27.61
2022-09-06T14:21:21.230Z,27.74
2022-09-06T14:23:52.287Z,27.68
2022-09-06T14:26:21.451Z,27.59
2022-09-06T14:28:49.458Z,27.36
2022-09-06T14:31:20.152Z,27.09
2022-09-06T14:33:48.725Z,26.91
2022-09-06T14:36:18.699Z,26.72
2022-09-06T14:38:47.730Z,26.66
2022-09-06T14:41:18.996Z,26.59
2022-09-06T14:43:50.884Z,26.59
2022-09-06T14:46:20.427Z,26.62
2022-09-06T14:48:48.643Z,26.56
2022-09-06T14:51:21.849Z,26.52
2022-09-06T14:53:52.142Z,26.41
2022-09-06T14:56:21.846Z,26.37
2022-09-06T14:58:50.150Z,26.34
2022-09-06T15:01:20.899Z,26.37
2022-09-06T15:03:51.586Z,26.43
2022-09-06T15:06:21.261Z,26.39
2022-09-06T15:08:52.859Z,26.35
2022-09-06T15:11:35.664Z,26.52
2022-09-06T15:14:04.377Z,26.61
2022-09-06T15:16:33.492Z,26.63
2022-09-06T15:19:02.715Z,26.73
2022-09-06T15:21:31.734Z,26.78
2022-09-06T15:24:02.004Z,26.72
2022-09-06T15:26:31.254Z,26.65
2022-09-06T15:29:00.507Z,26.59
2022-09-06T15:31:28.437Z,26.38
2022-09-06T15:33:58.059Z,26.38
2022-09-06T15:36:26.104Z,26.31
2022-09-06T15:38:54.735Z,26.33
2022-09-06T15:41:27.349Z,26.40
2022-09-06T15:43:56.706Z,26.38
2022-09-06T15:46:43.621Z,26.26
2022-09-06T15:49:12.822Z,26.19
2022-09-06T15:51:42.172Z,26.03
2022-09-06T15:54:10.706Z,26.01
2022-09-06T15:56:39.739Z,26.00
2022-09-06T15:59:07.993Z,26.05
2022-09-06T16:01:37.451Z,25.91
2022-09-06T16:04:07.003Z,25.91
2022-09-06T16:06:39.567Z,25.84
2022-09-06T16:09:09.449Z,25.86
2022-09-06T16:11:40.098Z,25.78
2022-09-06T16:14:41.129Z,25.76
2022-09-06T16:17:12.282Z,25.73
2022-09-06T16:19:40.245Z,25.70
2022-09-06T16:22:08.531Z,25.59
2022-09-06T16:24:36.379Z,25.44
2022-09-06T16:27:04.318Z,25.32
2022-09-06T16:29:32.172Z,25.21
2022-09-06T16:32:00.654Z,25.10
2022-09-06T16:34:29.926Z,24.99
2022-09-06T16:36:58.148Z,24.97
2022-09-06T16:39:26.206Z,24.92
2022-09-06T16:41:54.078Z,24.93
2022-09-06T16:44:21.882Z,24.92
2022-09-06T16:46:51.274Z,24.86
2022-09-06T16:49:19.849Z,24.82
2022-09-06T16:51:49.944Z,24.78
2022-09-06T16:54:18.758Z,24.69
2022-09-06T16:56:46.714Z,24.48
2022-09-06T16:59:19.834Z,24.26
2022-09-06T17:01:47.761Z,24.17
2022-09-06T17:04:16.065Z,24.08
2022-09-06T17:06:45.739Z,24.00
2022-09-06T17:09:19.039Z,23.88
2022-09-06T17:11:49.825Z,23.78
2022-09-06T17:14:18.363Z,23.61
2022-09-06T17:17:04.076Z,23.50
2022-09-06T17:19:32.113Z,23.41
2022-09-06T17:22:00.016Z,23.31
2022-09-06T17:24:29.432Z,23.16
2022-09-06T17:26:57.282Z,22.98
2022-09-06T17:29:27.718Z,22.82
2022-09-06T17:31:55.985Z,22.64
2022-09-06T17:34:23.977Z,22.44
2022-09-06T17:36:52.001Z,22.27
2022-09-06T17:39:22.075Z,22.13
2022-09-06T17:41:53.591Z,22.00
2022-09-06T17:44:24.521Z,21.93
2022-09-06T17:49:41.524Z,21.43
2022-09-06T17:52:09.760Z,21.33
2022-09-06T17:54:37.764Z,21.19
2022-09-06T17:57:07.189Z,21.12
2022-09-06T17:59:36.097Z,21.02
2022-09-06T18:02:05.453Z,20.89
2022-09-06T18:04:35.382Z,20.74
2022-09-06T18:07:03.389Z,20.59
2022-09-06T18:09:33.996Z,20.44
2022-09-06T18:12:01.967Z,20.35
2022-09-06T18:14:31.184Z,20.31
2022-09-06T18:16:59.150Z,20.31
2022-09-06T18:19:27.484Z,20.29
2022-09-06T18:21:57.263Z,20.25
2022-09-06T18:24:25.367Z,20.19
2022-09-06T18:26:53.284Z,20.12
2022-09-06T18:29:21.630Z,20.08
2022-09-06T18:31:53.535Z,20.12
2022-09-06T18:34:21.878Z,20.08
2022-09-06T18:36:49.722Z,20.01
2022-09-06T18:39:18.994Z,19.92
2022-09-06T18:42:02.074Z,19.84
2022-09-06T18:44:32.332Z,19.76
2022-09-06T18:47:03.410Z,19.68
2022-09-06T18:49:32.452Z,19.66
2022-09-06T18:52:00.515Z,19.59
2022-09-06T18:54:28.520Z,19.61
2022-09-06T18:56:56.696Z,19.61
2022-09-06T18:59:25.054Z,19.70
2022-09-06T19:01:53.121Z,19.62
2022-09-06T19:04:22.503Z,19.56
2022-09-06T19:06:50.616Z,19.50
2022-09-06T19:09:19.371Z,19.44
2022-09-06T19:11:51.527Z,19.42
2022-09-06T19:14:19.536Z,19.36
2022-09-06T19:16:48.703Z,19.32
2022-09-06T19:19:16.777Z,19.32
2022-09-06T19:21:45.979Z,19.29
2022-09-06T19:24:14.996Z,19.34
2022-09-06T19:26:45.034Z,19.31
2022-09-06T19:29:15.309Z,19.25
2022-09-06T19:31:43.967Z,19.18
2022-09-06T19:34:13.612Z,19.10
2022-09-06T19:36:41.489Z,19.05
2022-09-06T19:39:13.190Z,18.92
2022-09-06T19:41:42.995Z,18.85
2022-09-06T19:44:12.207Z,18.74
2022-09-06T19:46:45.421Z,18.67
2022-09-06T19:49:14.633Z,18.64
2022-09-06T19:51:43.840Z,18.63
2022-09-06T19:54:16.962Z,18.63
2022-09-06T19:56:45.111Z,18.61
2022-09-06T19:59:15.988Z,18.51
2022-09-06T20:01:45.522Z,18.52
2022-09-06T20:04:14.547Z,18.47
2022-09-06T20:06:43.183Z,18.42
2022-09-06T20:09:12.687Z,18.40
2022-09-06T20:11:42.887Z,18.37
2022-09-06T20:14:11.544Z,18.29
2022-09-06T20:16:42.050Z,18.21
2022-09-06T20:19:10.946Z,18.06
2022-09-06T20:21:38.831Z,17.92
2022-09-06T20:24:06.991Z,17.88
2022-09-06T20:26:36.467Z,17.83
2022-09-06T20:29:06.679Z,17.77
2022-09-06T20:31:36.158Z,17.68
2022-09-06T20:34:05.462Z,17.65
2022-09-06T20:36:33.615Z,17.66
2022-09-06T20:39:02.085Z,17.64
2022-09-06T20:41:29.933Z,17.62
2022-09-06T20:44:00.751Z,17.56
2022-09-06T20:46:30.930Z,17.49
2022-09-06T20:49:03.641Z,17.42
2022-09-06T20:51:32.659Z,17.36
2022-09-06T20:54:02.101Z,17.33
2022-09-06T20:56:31.394Z,17.32
2022-09-06T20:59:02.817Z,17.33
2022-09-06T21:01:33.519Z,17.32
2022-09-06T21:04:03.055Z,17.27
2022-09-06T21:06:33.727Z,17.23
2022-09-06T21:09:01.858Z,17.19
2022-09-06T21:11:29.992Z,17.13
2022-09-06T21:13:58.275Z,17.09
2022-09-06T21:16:29.045Z,17.00
2022-09-06T21:18:58.460Z,16.90
2022-09-06T21:21:27.249Z,16.88
2022-09-06T21:23:55.539Z,16.88
2022-09-06T21:26:23.446Z,16.86
2022-09-06T21:28:54.497Z,16.85
2022-09-06T21:31:24.544Z,16.78
2022-09-06T21:33:55.985Z,16.75
2022-09-06T21:36:27.514Z,16.79
2022-09-06T21:38:56.703Z,16.83
2022-09-06T21:41:25.004Z,16.83
2022-09-06T21:43:54.334Z,16.76
2022-09-06T21:46:24.726Z,16.72
2022-09-06T21:48:56.205Z,16.63
2022-09-06T21:51:27.170Z,16.54
2022-09-06T21:53:55.931Z,16.55
2022-09-06T21:56:25.076Z,16.45
2022-09-06T21:58:55.396Z,16.35
2022-09-06T22:01:24.344Z,16.34
2022-09-06T22:03:52.880Z,16.32
2022-09-06T22:06:24.860Z,16.23
2022-09-06T22:08:54.094Z,16.20
2022-09-06T22:11:24.646Z,16.16
2022-09-06T22:13:53.205Z,16.09
2022-09-06T22:16:22.849Z,15.99
2022-09-06T22:18:51.509Z,15.96
2022-09-06T22:21:21.179Z,15.91
2022-09-06T22:23:55.075Z,15.85
2022-09-06T22:26:23.698Z,15.79
2022-09-06T22:28:55.113Z,15.73
2022-09-06T22:31:24.100Z,15.68
2022-09-06T22:33:52.277Z,15.64
2022-09-06T22:36:20.292Z,15.61
2022-09-06T22:38:48.115Z,15.56
2022-09-06T22:41:17.293Z,15.57
2022-09-06T22:43:45.121Z,15.57
2022-09-06T22:46:13.601Z,15.53
2022-09-06T22:48:41.584Z,15.49
2022-09-06T22:51:12.542Z,15.46
2022-09-06T22:53:40.600Z,15.42
2022-09-06T22:56:08.628Z,15.39
2022-09-06T22:58:38.166Z,15.36
2022-09-06T23:06:20.462Z,15.22
2022-09-06T23:08:48.336Z,15.22
2022-09-06T23:11:17.843Z,15.24
2022-09-06T23:13:46.986Z,15.23
2022-09-06T23:16:17.285Z,15.17
2022-09-06T23:18:45.551Z,15.13
2022-09-06T23:21:16.086Z,15.05
2022-09-06T23:23:45.329Z,15.00
2022-09-06T23:26:14.945Z,14.95
2022-09-06T23:28:43.762Z,14.92
2022-09-06T23:31:15.041Z,14.91
2022-09-06T23:33:43.707Z,14.93
2022-09-06T23:36:13.636Z,14.93
2022-09-06T23:38:42.653Z,14.95
2022-09-06T23:41:13.345Z,14.95
2022-09-06T23:43:43.030Z,14.96
2022-09-06T23:46:12.036Z,14.96
2022-09-06T23:48:40.179Z,14.95
2022-09-06T23:51:08.748Z,14.94
2022-09-06T23:53:36.804Z,14.95
2022-09-06T23:56:05.400Z,14.96
2022-09-06T23:58:34.833Z,14.98
